Time;durP1;ratioP1;P1;durP2;ratioP2;P2;SDS_P1;SDS_P2;PMS_P1;PMS_P2;Temp;Humidity;BMP_temperature;BMP_pressure;BME280_temperature;BME280_humidity;BME280_pressure;Samples;Min_cycle;Max_cycle;Signal;HPM_P1;HPM_P2
2020/12/28 00:01:42;;;;;;;8.95;3.58;;;26.10;74.90;;;;;;5112141;28;20019;-61
2020/12/28 00:04:10;;;;;;;12.13;4.25;;;26.10;74.30;;;;;;5111865;28;20478;-61
2020/12/28 00:06:37;;;;;;;7.85;2.75;;;26.00;74.40;;;;;;5112240;28;20557;-62
2020/12/28 00:09:07;;;;;;;9.50;2.80;;;26.00;74.60;;;;;;5111868;28;20027;-62
2020/12/28 00:11:34;;;;;;;20.10;4.07;;;25.90;74.90;;;;;;5111534;28;20072;-61
2020/12/28 00:14:01;;;;;;;9.13;2.88;;;25.90;75.20;;;;;;5112283;28;20024;-60
2020/12/28 00:16:28;;;;;;;13.63;4.28;;;25.90;75.30;;;;;;5112434;28;20016;-64
2020/12/28 00:18:56;;;;;;;11.38;3.60;;;25.90;75.60;;;;;;5112296;28;20532;-62
2020/12/28 00:21:23;;;;;;;14.13;3.90;;;25.90;75.70;;;;;;5112108;28;20499;-61
2020/12/28 00:23:51;;;;;;;13.70;4.13;;;25.80;75.50;;;;;;5112222;28;20051;-63
2020/12/28 00:26:18;;;;;;;15.20;3.50;;;25.80;75.70;;;;;;5112408;28;20366;-62
2020/12/28 00:28:46;;;;;;;13.55;4.47;;;25.80;75.70;;;;;;5112008;28;20035;-62
2020/12/28 00:31:14;;;;;;;14.82;3.22;;;25.80;75.80;;;;;;5112042;28;20482;-61
2020/12/28 00:33:43;;;;;;;20.67;4.30;;;25.80;75.70;;;;;;5111577;28;20047;-60
2020/12/28 00:36:15;;;;;;;11.70;3.30;;;25.90;75.90;;;;;;5112019;28;20035;-64
2020/12/28 00:38:43;;;;;;;16.67;5.35;;;25.80;75.80;;;;;;5113016;28;20024;-63
2020/12/28 00:41:13;;;;;;;16.65;4.95;;;25.90;75.90;;;;;;5095500;28;20023;-62
2020/12/28 00:43:44;;;;;;;22.92;5.10;;;25.90;75.90;;;;;;5115700;28;20031;-61
2020/12/28 00:46:13;;;;;;;23.83;5.47;;;25.90;75.90;;;;;;5116020;28;20024;-61
2020/12/28 00:48:41;;;;;;;15.52;4.18;;;25.90;75.90;;;;;;5115859;28;20023;-63
2020/12/28 00:51:13;;;;;;;13.88;4.72;;;25.90;75.80;;;;;;5115992;28;20031;-65
2020/12/28 00:53:41;;;;;;;18.40;4.97;;;25.90;75.90;;;;;;5115757;28;20030;-62
2020/12/28 00:56:09;;;;;;;19.35;5.10;;;25.90;75.80;;;;;;5115885;28;20102;-61
2020/12/28 00:58:37;;;;;;;18.50;4.43;;;26.00;75.70;;;;;;5115339;28;20036;-61
2020/12/28 01:01:06;;;;;;;18.98;4.50;;;26.00;75.80;;;;;;5115551;28;20469;-64
2020/12/28 01:03:34;;;;;;;14.48;4.43;;;26.00;75.70;;;;;;5115273;28;20065;-59
2020/12/28 01:06:03;;;;;;;14.13;4.78;;;26.10;75.60;;;;;;5115713;28;20530;-63
2020/12/28 01:08:30;;;;;;;12.05;4.03;;;26.10;75.50;;;;;;5115520;28;20027;-61
2020/12/28 01:10:58;;;;;;;15.77;4.95;;;26.10;75.40;;;;;;5115218;28;20077;-61
2020/12/28 01:13:25;;;;;;;13.23;4.20;;;26.10;75.40;;;;;;5115453;28;20084;-61
2020/12/28 01:15:53;;;;;;;15.32;4.13;;;26.10;75.50;;;;;;5115004;28;20160;-61
2020/12/28 01:18:20;;;;;;;14.90;4.35;;;26.10;75.60;;;;;;5114990;28;20459;-61
2020/12/28 01:20:48;;;;;;;18.52;5.25;;;26.10;75.50;;;;;;5115367;28;20102;-63
2020/12/28 01:23:15;;;;;;;16.50;5.20;;;26.10;75.40;;;;;;5115292;28;20059;-60
2020/12/28 01:25:42;;;;;;;17.48;6.32;;;26.10;75.40;;;;;;5115239;28;20020;-64
2020/12/28 01:28:10;;;;;;;19.35;6.00;;;26.10;75.40;;;;;;5115100;28;20102;-62
2020/12/28 01:30:37;;;;;;;15.68;4.95;;;26.10;75.20;;;;;;5115102;28;20103;-61
2020/12/28 01:33:04;;;;;;;14.00;4.63;;;26.10;75.10;;;;;;5115090;28;20028;-59
2020/12/28 01:35:32;;;;;;;13.65;4.80;;;26.10;75.50;;;;;;5114864;28;20024;-63
2020/12/28 01:37:59;;;;;;;14.07;4.53;;;26.10;75.60;;;;;;5115028;28;20020;-63
2020/12/28 01:40:32;;;;;;;16.90;4.22;;;26.20;75.50;;;;;;5114831;28;20072;-62
2020/12/28 01:43:00;;;;;;;16.42;5.05;;;26.20;75.20;;;;;;5114880;28;20020;-61
2020/12/28 01:45:27;;;;;;;16.40;4.80;;;26.20;75.30;;;;;;5114751;28;20111;-65
2020/12/28 01:47:55;;;;;;;20.90;6.20;;;26.20;75.20;;;;;;5114800;28;20023;-63
2020/12/28 01:50:22;;;;;;;13.38;4.88;;;26.30;74.80;;;;;;5114060;28;20019;-64
2020/12/28 01:52:49;;;;;;;14.30;4.80;;;26.30;74.90;;;;;;5114629;28;20059;-64
2020/12/28 01:55:17;;;;;;;17.85;6.03;;;26.20;75.10;;;;;;5114627;28;20026;-62
2020/12/28 01:57:44;;;;;;;14.25;4.93;;;26.30;74.70;;;;;;5114363;28;20038;-64
2020/12/28 02:00:12;;;;;;;21.08;6.18;;;26.20;75.30;;;;;;5114741;28;20069;-61
2020/12/28 02:02:41;;;;;;;18.40;5.22;;;26.20;75.00;;;;;;5114323;28;20534;-63
2020/12/28 02:05:08;;;;;;;17.35;5.60;;;26.20;75.10;;;;;;5114330;28;20031;-59
2020/12/28 02:07:39;;;;;;;16.77;4.90;;;26.20;75.20;;;;;;5114237;28;20022;-62
2020/12/28 02:10:10;;;;;;;19.17;5.95;;;26.20;75.40;;;;;;5114681;28;20030;-63
2020/12/28 02:12:39;;;;;;;17.45;5.40;;;26.10;75.10;;;;;;5114056;28;20085;-63
2020/12/28 02:15:07;;;;;;;15.18;4.70;;;26.10;75.40;;;;;;5114684;28;20035;-62
2020/12/28 02:17:35;;;;;;;21.95;4.90;;;26.10;75.70;;;;;;5113958;28;20343;-64
2020/12/28 02:20:02;;;;;;;15.63;4.82;;;26.10;75.60;;;;;;5113874;28;20512;-62
2020/12/28 02:22:29;;;;;;;17.52;5.38;;;26.10;75.90;;;;;;5114172;28;20024;-61
2020/12/28 02:24:57;;;;;;;16.23;4.85;;;26.10;75.90;;;;;;5095615;28;20028;-62
2020/12/28 02:27:24;;;;;;;14.30;4.38;;;26.10;75.90;;;;;;5113962;28;20035;-63
2020/12/28 02:29:51;;;;;;;19.23;5.13;;;26.00;75.40;;;;;;5114173;28;20085;-65
2020/12/28 02:32:19;;;;;;;23.00;5.40;;;26.10;75.50;;;;;;5114101;28;20023;-63
2020/12/28 02:34:46;;;;;;;17.75;5.35;;;26.00;75.70;;;;;;5113912;28;20386;-63
2020/12/28 02:37:13;;;;;;;17.95;4.57;;;26.00;75.60;;;;;;5114040;28;20042;-63
2020/12/28 02:39:41;;;;;;;18.58;5.97;;;26.00;76.20;;;;;;5113487;28;20024;-62
2020/12/28 02:42:08;;;;;;;13.25;4.43;;;26.00;75.90;;;;;;5113681;28;20020;-59
2020/12/28 02:44:35;;;;;;;21.42;5.78;;;26.00;75.80;;;;;;5095654;28;20042;-58
2020/12/28 02:47:03;;;;;;;19.67;4.50;;;26.00;75.70;;;;;;5114060;28;20054;-59
2020/12/28 02:49:30;;;;;;;14.02;4.80;;;25.90;75.00;;;;;;5113450;28;20103;-60
2020/12/28 02:51:57;;;;;;;15.95;5.57;;;25.90;76.20;;;;;;5113743;28;20069;-57
2020/12/28 02:54:25;;;;;;;18.60;5.28;;;25.90;76.30;;;;;;5095808;28;20032;-64
2020/12/28 02:56:52;;;;;;;18.90;5.43;;;25.80;76.40;;;;;;5113424;28;20073;-57
2020/12/28 02:59:19;;;;;;;15.02;5.13;;;25.80;76.60;;;;;;5113532;28;20136;-62
2020/12/28 03:01:49;;;;;;;20.00;5.97;;;25.70;76.30;;;;;;5113101;28;20027;-61
2020/12/28 03:04:16;;;;;;;17.92;4.93;;;25.70;76.50;;;;;;5112892;28;20428;-64
2020/12/28 03:06:44;;;;;;;15.55;4.88;;;25.70;76.60;;;;;;5113492;28;20024;-61
2020/12/28 03:09:11;;;;;;;18.33;5.28;;;25.70;76.90;;;;;;5113594;28;20051;-62
2020/12/28 03:11:39;;;;;;;18.00;4.70;;;25.70;76.80;;;;;;5113210;28;20020;-64
2020/12/28 03:14:06;;;;;;;19.42;5.68;;;25.60;76.50;;;;;;5113160;28;20416;-64
2020/12/28 03:16:33;;;;;;;17.63;5.07;;;25.50;76.70;;;;;;5113123;28;20028;-59
2020/12/28 03:19:01;;;;;;;16.40;5.88;;;25.50;76.70;;;;;;5112948;28;20043;-64
2020/12/28 03:21:28;;;;;;;15.63;4.90;;;25.50;76.80;;;;;;5113102;28;20214;-65
2020/12/28 03:23:55;;;;;;;14.05;4.57;;;25.50;76.50;;;;;;5112889;28;20431;-62
2020/12/28 03:26:23;;;;;;;14.00;5.20;;;25.50;77.10;;;;;;5112956;28;20084;-62
2020/12/28 03:28:50;;;;;;;16.83;5.65;;;25.40;77.00;;;;;;5113266;28;20019;-62
2020/12/28 03:31:17;;;;;;;19.00;5.15;;;25.40;77.30;;;;;;5113264;28;20024;-65
2020/12/28 03:33:45;;;;;;;21.15;6.10;;;25.40;77.00;;;;;;5094580;28;20058;-64
2020/12/28 03:36:12;;;;;;;16.80;4.93;;;25.40;77.20;;;;;;5094305;28;20030;-64
2020/12/28 03:38:39;;;;;;;16.40;5.07;;;25.40;76.90;;;;;;5112695;28;20028;-62
2020/12/28 03:41:07;;;;;;;17.92;5.07;;;25.30;77.00;;;;;;5109273;28;20363;-65
2020/12/28 03:43:34;;;;;;;16.30;4.57;;;25.30;76.90;;;;;;5112188;28;20036;-64
2020/12/28 03:46:02;;;;;;;15.68;4.65;;;25.30;76.80;;;;;;5113085;28;20048;-64
2020/12/28 03:48:29;;;;;;;18.27;5.05;;;25.20;76.80;;;;;;5112646;28;20031;-60
2020/12/28 03:50:56;;;;;;;15.02;4.88;;;25.20;77.60;;;;;;5112573;28;20054;-63
2020/12/28 03:53:24;;;;;;;19.13;4.68;;;25.20;77.20;;;;;;5112595;28;20478;-64
2020/12/28 03:55:51;;;;;;;15.23;4.80;;;25.20;77.50;;;;;;5112487;28;20382;-62
2020/12/28 03:58:18;;;;;;;18.25;5.03;;;25.10;77.00;;;;;;5112630;28;20083;-61
2020/12/28 04:00:46;;;;;;;16.52;4.88;;;25.20;77.20;;;;;;5112590;28;20026;-62
2020/12/28 04:03:13;;;;;;;14.80;5.15;;;25.10;77.30;;;;;;5112264;28;20070;-59
2020/12/28 04:05:40;;;;;;;14.57;4.57;;;25.10;77.60;;;;;;5112138;28;20483;-61
2020/12/28 04:08:08;;;;;;;13.07;5.10;;;25.10;77.40;;;;;;5112121;28;20043;-65
2020/12/28 04:10:35;;;;;;;16.67;4.57;;;25.00;77.60;;;;;;5094533;28;20108;-61
2020/12/28 04:13:03;;;;;;;16.67;5.75;;;25.00;77.40;;;;;;5112413;28;20027;-61
2020/12/28 04:15:30;;;;;;;16.27;5.20;;;25.00;77.50;;;;;;5112084;28;20100;-60
2020/12/28 04:17:58;;;;;;;19.95;5.63;;;25.00;77.30;;;;;;5112283;28;20359;-61
2020/12/28 04:20:25;;;;;;;11.05;4.07;;;25.00;77.10;;;;;;5112198;28;20151;-62
2020/12/28 04:22:52;;;;;;;16.02;4.25;;;25.00;76.90;;;;;;5094061;28;20067;-63
2020/12/28 04:25:20;;;;;;;12.82;4.32;;;25.00;77.20;;;;;;5112077;28;20028;-61
2020/12/28 04:27:47;;;;;;;13.02;4.38;;;24.90;77.20;;;;;;5112117;28;20106;-65
2020/12/28 04:30:15;;;;;;;13.52;4.45;;;24.90;77.60;;;;;;5094028;28;20031;-61
2020/12/28 04:32:42;;;;;;;13.07;5.22;;;24.90;77.60;;;;;;5112370;28;20042;-62
2020/12/28 04:35:10;;;;;;;14.88;4.38;;;24.90;77.60;;;;;;5094629;28;20382;-63
2020/12/28 04:37:37;;;;;;;14.65;4.82;;;24.90;77.30;;;;;;5112120;28;20028;-63
2020/12/28 04:40:05;;;;;;;17.88;5.40;;;24.80;77.10;;;;;;5112409;28;20476;-65
2020/12/28 04:42:33;;;;;;;13.20;4.38;;;24.80;77.50;;;;;;5094255;28;20032;-62
2020/12/28 04:45:00;;;;;;;13.90;4.25;;;24.80;77.40;;;;;;5112301;28;20024;-62
2020/12/28 04:47:27;;;;;;;15.73;4.70;;;24.80;77.00;;;;;;5112034;28;20125;-61
2020/12/28 04:49:55;;;;;;;14.43;4.72;;;24.80;77.40;;;;;;5112167;28;20031;-61
2020/12/28 04:52:24;;;;;;;13.10;4.68;;;24.80;77.10;;;;;;5112361;28;20027;-62
2020/12/28 04:54:51;;;;;;;16.00;4.95;;;24.70;77.10;;;;;;5112033;28;20409;-63
2020/12/28 04:57:19;;;;;;;15.00;4.68;;;24.70;77.00;;;;;;5093875;28;20051;-65
2020/12/28 04:59:46;;;;;;;14.38;5.13;;;24.70;77.00;;;;;;5111922;28;20019;-62
2020/12/28 05:02:14;;;;;;;19.33;4.82;;;24.70;76.80;;;;;;5111883;28;20024;-60
2020/12/28 05:04:41;;;;;;;12.70;4.25;;;24.70;77.20;;;;;;5111759;28;20038;-60
2020/12/28 05:07:08;;;;;;;15.38;4.80;;;24.70;76.70;;;;;;5112182;28;20450;-64
2020/12/28 05:09:36;;;;;;;15.48;4.82;;;24.70;76.80;;;;;;5111665;28;20375;-62
2020/12/28 05:12:05;;;;;;;14.25;4.38;;;24.60;76.60;;;;;;5093518;28;20016;-63
2020/12/28 05:14:33;;;;;;;10.80;3.65;;;24.60;76.70;;;;;;5112031;28;20085;-63
2020/12/28 05:17:04;;;;;;;14.23;4.95;;;24.60;76.40;;;;;;5112175;28;20020;-63
2020/12/28 05:19:33;;;;;;;13.43;4.78;;;24.60;76.10;;;;;;5111422;28;20051;-61
2020/12/28 05:22:00;;;;;;;13.13;4.35;;;24.50;76.40;;;;;;5093639;28;20081;-58
2020/12/28 05:24:28;;;;;;;11.25;3.88;;;24.50;76.20;;;;;;5111531;28;20035;-59
2020/12/28 05:26:58;;;;;;;11.70;3.75;;;24.50;76.60;;;;;;5114152;28;20516;-59
2020/12/28 05:29:27;;;;;;;14.40;4.40;;;24.50;76.30;;;;;;5096696;28;20039;-62
2020/12/28 05:31:56;;;;;;;12.00;4.75;;;24.50;76.00;;;;;;5115494;28;20290;-62
2020/12/28 05:34:26;;;;;;;21.90;5.90;;;24.50;76.30;;;;;;5115713;28;20038;-60
2020/12/28 05:36:56;;;;;;;13.50;4.15;;;24.50;77.10;;;;;;5115709;28;20056;-61
2020/12/28 05:39:26;;;;;;;12.77;4.15;;;24.40;76.50;;;;;;5097039;28;20047;-58
2020/12/28 05:42:07;;;;;;;9.10;3.63;;;24.40;76.50;;;;;;5115157;28;20031;-62
2020/12/28 05:44:38;;;;;;;12.93;3.92;;;24.40;76.40;;;;;;5115228;28;20042;-61
2020/12/28 05:47:18;;;;;;;13.07;4.90;;;24.30;77.10;;;;;;5115135;28;20508;-62
2020/12/28 05:49:49;;;;;;;11.27;3.97;;;24.30;76.10;;;;;;5114796;28;20447;-59
2020/12/28 05:52:19;;;;;;;14.27;4.13;;;24.30;76.50;;;;;;5114917;28;20024;-62
2020/12/28 05:54:49;;;;;;;12.82;4.32;;;24.30;76.60;;;;;;5114997;28;20054;-59
2020/12/28 05:57:17;;;;;;;13.23;4.00;;;24.30;76.90;;;;;;5115160;28;20103;-63
2020/12/28 05:59:44;;;;;;;15.82;4.90;;;24.30;77.20;;;;;;5096481;28;20474;-65
2020/12/28 06:02:12;;;;;;;15.88;5.80;;;24.30;77.20;;;;;;5114927;28;20035;-65
2020/12/28 06:04:42;;;;;;;11.02;3.65;;;24.20;76.60;;;;;;5114686;28;20035;-62
2020/12/28 06:07:10;;;;;;;13.73;4.13;;;24.20;76.90;;;;;;5096837;28;20035;-62
2020/12/28 06:09:37;;;;;;;11.73;3.95;;;24.10;77.00;;;;;;5114435;28;20027;-63
2020/12/28 06:12:09;;;;;;;11.48;4.10;;;24.10;76.20;;;;;;5114489;28;20023;-65
2020/12/28 06:14:37;;;;;;;;;;;24.10;76.10;;;;;;5115297;28;20031;-63
2020/12/28 06:17:06;;;;;;;18.65;4.85;;;24.10;76.40;;;;;;5114829;28;19994;-66
2020/12/28 06:19:34;;;;;;;14.10;3.85;;;24.10;76.30;;;;;;5114436;28;20100;-66
2020/12/28 06:22:02;;;;;;;14.57;4.30;;;24.10;75.20;;;;;;5114459;28;20442;-65
2020/12/28 06:24:34;;;;;;;14.52;4.25;;;24.00;76.70;;;;;;5096045;28;20509;-61
2020/12/28 06:27:01;;;;;;;;;;;24.00;76.30;;;;;;5105535;27;20040;-59
2020/12/28 06:29:29;;;;;;;14.05;4.57;;;24.00;76.90;;;;;;5110937;27;19972;-60
2020/12/28 06:31:57;;;;;;;15.68;5.20;;;24.00;76.50;;;;;;5113043;28;20500;-60
2020/12/28 06:34:25;;;;;;;14.32;4.70;;;23.90;75.80;;;;;;5111574;28;20377;-62
2020/12/28 06:37:02;;;;;;;13.48;3.80;;;24.00;76.90;;;;;;5112393;28;20028;-60
2020/12/28 06:39:30;;;;;;;13.10;4.53;;;24.00;77.20;;;;;;5107018;28;20019;-54
2020/12/28 06:42:14;;;;;;;17.02;4.68;;;24.00;77.00;;;;;;5112901;28;20053;-63
2020/12/28 06:44:43;;;;;;;17.80;4.50;;;24.00;76.70;;;;;;5109493;27;20038;-55
2020/12/28 06:47:24;;;;;;;16.05;4.22;;;23.90;76.90;;;;;;5107644;28;20085;-61
2020/12/28 06:49:52;;;;;;;17.10;5.15;;;24.00;76.90;;;;;;5108208;28;20080;-64
2020/12/28 06:52:20;;;;;;;18.90;4.70;;;24.00;76.70;;;;;;5112424;28;20024;-60
2020/12/28 06:54:47;;;;;;;16.52;4.32;;;24.00;76.50;;;;;;5112163;28;20043;-55
2020/12/28 06:57:14;;;;;;;18.08;5.18;;;24.00;76.60;;;;;;5111284;28;20032;-58
2020/12/28 06:59:42;;;;;;;18.98;4.72;;;24.00;76.70;;;;;;5107894;28;20043;-61
2020/12/28 07:02:09;;;;;;;13.32;4.03;;;24.00;76.60;;;;;;5108579;28;20378;-64
2020/12/28 07:04:38;;;;;;;13.23;4.35;;;24.00;76.40;;;;;;5112521;28;20458;-62
2020/12/28 07:07:08;;;;;;;15.43;3.78;;;24.00;76.50;;;;;;5111384;28;20024;-62
2020/12/28 07:09:35;;;;;;;15.98;4.05;;;24.00;76.20;;;;;;5088610;28;20023;-63
2020/12/28 07:12:10;;;;;;;12.65;3.80;;;24.00;76.30;;;;;;5112266;28;20420;-60
2020/12/28 07:14:38;;;;;;;16.48;4.43;;;23.90;76.20;;;;;;5112122;28;20486;-66
2020/12/28 07:17:06;;;;;;;11.90;3.88;;;24.00;76.40;;;;;;5111726;28;20489;-61
2020/12/28 07:19:34;;;;;;;17.77;4.20;;;24.00;76.20;;;;;;5107521;28;20054;-57
2020/12/28 07:22:02;;;;;;;15.60;4.63;;;23.90;76.20;;;;;;5112541;28;20028;-54
2020/12/28 07:24:29;;;;;;;10.95;3.70;;;23.90;76.60;;;;;;5111876;28;20063;-56
2020/12/28 07:26:57;;;;;;;12.52;3.97;;;23.90;76.60;;;;;;5111297;28;20024;-54
2020/12/28 07:29:24;;;;;;;12.82;3.75;;;23.90;76.40;;;;;;5106374;28;20498;-56
2020/12/28 07:32:02;;;;;;;12.88;4.57;;;23.90;76.50;;;;;;5111860;28;20030;-60
2020/12/28 07:34:29;;;;;;;9.30;3.50;;;23.90;76.40;;;;;;5111918;28;20020;-57
2020/12/28 07:36:57;;;;;;;9.60;3.53;;;23.90;76.40;;;;;;5112029;28;20035;-58
2020/12/28 07:39:25;;;;;;;18.45;4.03;;;23.90;76.50;;;;;;5105719;28;20466;-57
2020/12/28 07:41:52;;;;;;;14.98;4.07;;;23.80;76.40;;;;;;5111786;28;20356;-56
2020/12/28 07:44:20;;;;;;;11.00;3.67;;;23.80;76.40;;;;;;5111624;28;20487;-56
2020/12/28 07:47:02;;;;;;;10.68;3.83;;;23.80;76.30;;;;;;5111148;28;20397;-56
2020/12/28 07:49:36;;;;;;;11.10;3.15;;;23.80;76.20;;;;;;5105081;28;20059;-58
2020/12/28 07:52:39;;;;;;;15.13;3.88;;;23.80;76.50;;;;;;5111752;28;20027;-52
2020/12/28 07:55:18;;;;;;;11.10;4.18;;;23.70;78.10;;;;;;5057111;28;20166;-56
2020/12/28 07:58:03;;;;;;;14.05;3.92;;;23.60;77.70;;;;;;5110461;28;20043;-55
2020/12/28 08:00:43;;;;;;;17.67;4.35;;;23.60;77.20;;;;;;5105646;28;20102;-53
2020/12/28 08:03:41;;;;;;;13.10;4.32;;;23.60;77.30;;;;;;5111229;28;20035;-57
2020/12/28 08:06:09;;;;;;;13.57;4.78;;;23.60;77.20;;;;;;5109651;28;20392;-53
2020/12/28 08:08:37;;;;;;;12.80;4.18;;;23.50;77.10;;;;;;5087831;28;20982;-55
2020/12/28 08:11:05;;;;;;;12.77;3.42;;;23.50;76.90;;;;;;5111208;28;20154;-59
2020/12/28 08:13:37;;;;;;;13.80;4.03;;;23.60;76.90;;;;;;5110788;28;20482;-59
2020/12/28 08:16:12;;;;;;;10.02;3.25;;;23.60;77.00;;;;;;5111247;28;20027;-62
2020/12/28 08:18:47;;;;;;;11.48;3.70;;;23.60;77.00;;;;;;5087425;28;20054;-61
2020/12/28 08:21:15;;;;;;;12.73;3.65;;;23.50;77.00;;;;;;5111846;28;20063;-62
2020/12/28 08:23:54;;;;;;;12.55;3.78;;;23.60;77.00;;;;;;5113368;28;20085;-62
2020/12/28 08:26:26;;;;;;;11.35;4.07;;;23.50;77.10;;;;;;5111476;28;20073;-58
2020/12/28 08:29:01;;;;;;;16.48;4.13;;;23.50;77.10;;;;;;5105318;28;20043;-61
2020/12/28 08:31:35;;;;;;;9.70;3.88;;;23.50;77.10;;;;;;5111344;28;20023;-57
2020/12/28 08:34:16;;;;;;;9.70;3.50;;;23.50;77.10;;;;;;5107312;28;20042;-52
2020/12/28 08:36:53;;;;;;;10.52;3.63;;;23.60;77.00;;;;;;5108448;28;20035;-61
2020/12/28 08:39:22;;;;;;;13.32;4.30;;;23.50;77.00;;;;;;5104862;28;20103;-60
2020/12/28 08:41:58;;;;;;;11.18;4.20;;;23.50;77.10;;;;;;5111319;28;20030;-61
2020/12/28 08:44:37;;;;;;;11.80;3.88;;;23.50;77.00;;;;;;5111091;28;20452;-61
2020/12/28 08:47:12;;;;;;;14.63;4.07;;;23.60;77.20;;;;;;5111207;28;20054;-59
2020/12/28 08:49:41;;;;;;;12.35;4.00;;;23.50;77.20;;;;;;5102654;28;20030;-60
2020/12/28 08:52:12;;;;;;;10.13;3.53;;;23.50;76.90;;;;;;5107082;28;20047;-55
2020/12/28 08:54:41;;;;;;;15.48;4.75;;;23.50;77.00;;;;;;5110948;28;20023;-57
2020/12/28 08:57:19;;;;;;;12.52;3.75;;;23.40;77.00;;;;;;5111007;28;20066;-61
2020/12/28 08:59:47;;;;;;;12.55;3.63;;;23.50;77.60;;;;;;5104890;28;20020;-62
2020/12/28 09:02:24;;;;;;;15.10;4.15;;;23.50;77.70;;;;;;5078933;28;20024;-61
2020/12/28 09:04:52;;;;;;;12.98;4.15;;;23.50;77.60;;;;;;5114924;28;20108;-63
2020/12/28 09:07:20;;;;;;;12.57;4.10;;;23.50;77.40;;;;;;5115027;28;20050;-58
2020/12/28 09:09:48;;;;;;;11.63;3.80;;;23.50;77.30;;;;;;5108583;28;20027;-60
2020/12/28 09:12:17;;;;;;;11.40;3.67;;;23.50;77.30;;;;;;5114233;28;20106;-55
2020/12/28 09:14:44;;;;;;;9.88;3.63;;;23.50;77.30;;;;;;5114915;28;20051;-64
2020/12/28 09:17:12;;;;;;;12.38;4.22;;;23.50;77.40;;;;;;5114879;28;20032;-60
2020/12/28 09:19:39;;;;;;;10.15;3.67;;;23.50;77.50;;;;;;5109167;28;20043;-57
2020/12/28 09:22:06;;;;;;;12.02;4.07;;;23.50;77.50;;;;;;5116482;27;20031;-61
2020/12/28 09:24:34;;;;;;;10.60;3.92;;;23.50;77.50;;;;;;5114574;28;20119;-58
2020/12/28 09:27:01;;;;;;;8.82;2.88;;;23.40;77.50;;;;;;5114473;28;20417;-61
2020/12/28 09:29:29;;;;;;;10.95;3.25;;;23.40;77.50;;;;;;5108984;28;20362;-56
2020/12/28 09:31:56;;;;;;;15.07;4.57;;;23.40;77.60;;;;;;5114102;28;20027;-60
2020/12/28 09:34:23;;;;;;;12.80;3.63;;;23.40;77.60;;;;;;5114451;28;20118;-59
2020/12/28 09:37:01;;;;;;;13.05;3.92;;;23.50;77.60;;;;;;5114470;28;20020;-60
2020/12/28 09:39:29;;;;;;;12.50;3.78;;;23.40;77.60;;;;;;5108760;28;20031;-62
2020/12/28 09:41:57;;;;;;;14.52;4.75;;;23.40;77.60;;;;;;5113861;28;20488;-61
2020/12/28 09:44:25;;;;;;;12.05;4.30;;;23.40;77.70;;;;;;5114460;28;20062;-62
2020/12/28 09:46:53;;;;;;;10.68;4.15;;;23.40;77.70;;;;;;5114108;28;20019;-60
2020/12/28 09:49:22;;;;;;;17.70;4.53;;;23.40;77.90;;;;;;5108770;28;20096;-52
2020/12/28 09:51:53;;;;;;;15.25;3.90;;;23.40;77.90;;;;;;5113419;28;20049;-54
2020/12/28 09:54:22;;;;;;;12.57;4.18;;;23.50;77.90;;;;;;5113685;28;20024;-63
2020/12/28 09:56:50;;;;;;;13.00;3.65;;;23.40;77.80;;;;;;5095020;28;20036;-61
2020/12/28 09:59:17;;;;;;;12.13;3.72;;;23.50;77.80;;;;;;5108674;28;20462;-60
2020/12/28 10:01:45;;;;;;;8.10;3.55;;;23.40;77.70;;;;;;5113291;28;20070;-54
2020/12/28 10:04:13;;;;;;;12.48;3.35;;;23.50;77.80;;;;;;5113824;28;20031;-53
2020/12/28 10:06:41;;;;;;;12.27;3.67;;;23.40;77.70;;;;;;5113587;28;20468;-56
2020/12/28 10:09:10;;;;;;;11.55;3.33;;;23.40;77.70;;;;;;5085597;28;20363;-59
2020/12/28 10:11:38;;;;;;;12.82;3.88;;;23.40;77.70;;;;;;5113103;28;20355;-57
2020/12/28 10:14:06;;;;;;;14.30;3.65;;;23.40;77.80;;;;;;5113258;28;20038;-57
2020/12/28 10:16:33;;;;;;;8.10;3.50;;;23.40;77.90;;;;;;5113689;28;20074;-54
2020/12/28 10:19:01;;;;;;;11.95;3.70;;;23.40;77.90;;;;;;5108195;28;20048;-60
2020/12/28 10:21:30;;;;;;;12.32;4.75;;;23.40;77.90;;;;;;5114049;27;20103;-52
2020/12/28 10:23:58;;;;;;;10.65;3.95;;;23.40;78.00;;;;;;5094794;28;20040;-63
2020/12/28 10:26:27;;;;;;;11.70;3.45;;;23.30;77.90;;;;;;5113816;28;20030;-62
2020/12/28 10:28:56;;;;;;;10.63;3.53;;;23.30;77.80;;;;;;5108539;28;20149;-62
2020/12/28 10:31:24;;;;;;;13.55;4.38;;;23.40;77.90;;;;;;5113183;28;20030;-64
2020/12/28 10:33:52;;;;;;;11.68;3.63;;;23.30;78.00;;;;;;5113032;28;20024;-66
2020/12/28 10:36:25;;;;;;;10.30;3.42;;;23.30;77.90;;;;;;5109819;28;20032;-54
2020/12/28 10:38:54;;;;;;;10.00;3.33;;;23.30;77.90;;;;;;5103489;28;20036;-55
2020/12/28 10:41:29;;;;;;;9.70;3.80;;;23.30;77.90;;;;;;5109350;28;20031;-54
2020/12/28 10:43:57;;;;;;;10.70;3.15;;;23.30;78.00;;;;;;5109046;28;20493;-54
2020/12/28 10:46:26;;;;;;;12.52;3.50;;;23.30;78.10;;;;;;5113731;28;20105;-54
2020/12/28 10:48:53;;;;;;;11.20;3.28;;;23.30;78.00;;;;;;5108027;28;20040;-49
2020/12/28 10:51:21;;;;;;;10.80;3.58;;;23.30;78.00;;;;;;5113379;28;20031;-52
2020/12/28 10:53:54;;;;;;;8.88;3.53;;;23.30;78.30;;;;;;5112960;28;20024;-54
2020/12/28 10:56:30;;;;;;;10.27;3.80;;;23.30;78.50;;;;;;5113792;28;20023;-56
2020/12/28 10:58:58;;;;;;;10.38;3.90;;;23.30;78.30;;;;;;5108563;28;20027;-51
2020/12/28 11:01:27;;;;;;;10.27;3.03;;;23.30;78.30;;;;;;5094938;28;20050;-61
2020/12/28 11:03:55;;;;;;;12.65;3.40;;;23.20;78.00;;;;;;5112854;28;20077;-56
2020/12/28 11:06:24;;;;;;;9.75;3.28;;;23.20;78.10;;;;;;5113266;28;20031;-56
2020/12/28 11:08:52;;;;;;;11.50;3.83;;;23.20;78.10;;;;;;5108169;28;20073;-63
2020/12/28 11:11:21;;;;;;;12.02;4.25;;;23.30;78.20;;;;;;5113483;28;20031;-62
2020/12/28 11:13:51;;;;;;;15.20;4.47;;;23.20;78.10;;;;;;5113344;28;20027;-58
2020/12/28 11:16:31;;;;;;;10.30;3.85;;;23.20;78.10;;;;;;5112965;28;20030;-60
2020/12/28 11:18:58;;;;;;;11.90;3.78;;;23.20;78.00;;;;;;5089099;28;20051;-61
2020/12/28 11:21:25;;;;;;;11.73;3.95;;;23.20;78.00;;;;;;5113726;28;20084;-55
2020/12/28 11:24:02;;;;;;;9.85;3.75;;;23.20;78.00;;;;;;5111778;28;20089;-51
2020/12/28 11:26:33;;;;;;;12.77;4.15;;;23.20;78.00;;;;;;5093853;28;20030;-61
2020/12/28 11:29:05;;;;;;;10.65;3.47;;;23.20;78.10;;;;;;5089628;28;20024;-62
2020/12/28 11:31:33;;;;;;;11.00;3.22;;;23.20;78.00;;;;;;5112320;28;20051;-60
2020/12/28 11:34:07;;;;;;;11.98;3.72;;;23.20;78.00;;;;;;5112172;28;20104;-62
2020/12/28 11:36:34;;;;;;;10.35;3.47;;;23.20;78.00;;;;;;5111685;28;20028;-63
2020/12/28 11:39:01;;;;;;;10.38;3.42;;;23.20;78.00;;;;;;5106762;28;20470;-56
2020/12/28 11:41:28;;;;;;;9.48;3.05;;;23.20;78.00;;;;;;5111773;28;20127;-54
2020/12/28 11:43:56;;;;;;;9.50;3.33;;;23.20;78.00;;;;;;5112138;28;20615;-61
2020/12/28 11:46:27;;;;;;;7.20;3.28;;;23.20;78.00;;;;;;5111221;28;20030;-60
2020/12/28 11:48:55;;;;;;;12.88;3.92;;;23.20;78.10;;;;;;5108651;28;20363;-59
2020/12/28 11:51:23;;;;;;;10.23;3.42;;;23.10;78.00;;;;;;5112745;28;20052;-58
2020/12/28 11:53:50;;;;;;;10.88;3.20;;;23.10;78.10;;;;;;5112625;28;20024;-55
2020/12/28 11:56:19;;;;;;;11.95;3.35;;;23.10;78.20;;;;;;5112751;28;20039;-58
2020/12/28 11:58:49;;;;;;;9.60;3.65;;;23.10;78.10;;;;;;5112659;28;20036;-59
2020/12/28 12:01:19;;;;;;;10.63;3.45;;;23.00;78.30;;;;;;5094442;28;20020;-55
2020/12/28 12:03:48;;;;;;;9.95;3.20;;;23.00;78.30;;;;;;5112196;28;20125;-59
2020/12/28 12:06:22;;;;;;;11.60;3.90;;;23.10;78.40;;;;;;5112440;28;20016;-59
2020/12/28 12:11:37;;;;;;;10.73;3.47;;;23.00;78.40;;;;;;5112617;28;20164;-57
2020/12/28 12:14:05;;;;;;;9.85;3.47;;;23.00;78.40;;;;;;5110620;28;20045;-58
2020/12/28 12:16:32;;;;;;;11.75;4.35;;;23.00;78.40;;;;;;5112479;28;20108;-58
2020/12/28 12:18:59;;;;;;;14.27;3.13;;;23.00;78.70;;;;;;5112490;28;20143;-60
2020/12/28 12:21:27;;;;;;;10.10;3.05;;;22.90;78.50;;;;;;5112300;28;20077;-58
2020/12/28 12:23:54;;;;;;;11.40;3.47;;;22.90;78.70;;;;;;5112222;28;20084;-57
2020/12/28 12:26:22;;;;;;;12.05;3.67;;;22.90;78.80;;;;;;5112602;28;20016;-59
2020/12/28 12:28:51;;;;;;;16.65;4.18;;;22.90;78.80;;;;;;5112694;28;20023;-59
2020/12/28 12:31:19;;;;;;;11.80;3.05;;;22.90;78.90;;;;;;5112293;28;20066;-60
2020/12/28 12:33:47;;;;;;;11.55;4.25;;;22.90;78.90;;;;;;5112572;28;20020;-60
2020/12/28 12:36:18;;;;;;;12.23;3.50;;;22.80;79.50;;;;;;5115774;28;20110;-55
2020/12/28 12:38:46;;;;;;;9.93;3.83;;;22.80;78.90;;;;;;5098625;28;20465;-63
2020/12/28 12:41:15;;;;;;;9.25;3.13;;;22.80;78.90;;;;;;5116789;28;20054;-59
2020/12/28 12:43:43;;;;;;;8.60;3.17;;;22.80;78.80;;;;;;5115150;28;20047;-55
2020/12/28 12:46:12;;;;;;;8.65;3.08;;;22.80;78.90;;;;;;5098568;28;20047;-59
2020/12/28 12:48:43;;;;;;;8.50;3.15;;;22.80;79.00;;;;;;5116271;28;20031;-56
2020/12/28 12:51:14;;;;;;;11.03;3.10;;;22.80;78.90;;;;;;5116368;28;20032;-53